createdAt,value
2022-08-02T00:01:18.844Z,9.66
2022-08-02T00:03:45.463Z,9.67
2022-08-02T00:06:12.285Z,9.73
2022-08-02T00:08:38.794Z,9.65
2022-08-02T00:11:06.049Z,9.65
2022-08-02T00:13:32.678Z,9.64
2022-08-02T00:15:59.417Z,9.41
2022-08-02T00:18:25.934Z,9.32
2022-08-02T00:20:52.529Z,9.44
2022-08-02T00:23:19.122Z,9.61
2022-08-02T00:25:55.095Z,9.44
2022-08-02T00:28:27.452Z,9.57
2022-08-02T00:30:55.179Z,9.47
2022-08-02T00:34:09.137Z,9.19
2022-08-02T00:36:08.275Z,9.09
2022-08-02T00:38:35.042Z,9.09
2022-08-02T00:41:01.922Z,9.34
2022-08-02T00:43:28.588Z,9.04
2022-08-02T00:46:02.229Z,8.84
2022-08-02T00:48:30.638Z,9.04
2022-08-02T00:50:59.024Z,9.26
2022-08-02T00:53:25.588Z,9.03
2022-08-02T00:55:52.188Z,9.15
2022-08-02T00:58:19.159Z,8.93
2022-08-02T01:00:45.855Z,8.82
2022-08-02T01:03:12.394Z,8.86
2022-08-02T01:06:09.167Z,9.01
2022-08-02T01:08:29.324Z,8.93
2022-08-02T01:10:58.476Z,8.87
2022-08-02T01:13:27.666Z,8.91
2022-08-02T01:16:02.132Z,8.93
2022-08-02T01:18:35.300Z,8.84
2022-08-02T01:21:35.517Z,8.98
2022-08-02T01:24:42.680Z,8.69
2022-08-02T01:27:33.925Z,8.84
2022-08-02T01:30:02.849Z,8.79
2022-08-02T01:32:37.716Z,8.86
2022-08-02T01:35:17.531Z,9.00
2022-08-02T01:38:22.608Z,8.83
2022-08-02T01:40:51.639Z,8.84
2022-08-02T01:43:21.429Z,8.83
2022-08-02T01:45:48.498Z,8.76
2022-08-02T01:48:16.812Z,8.86
2022-08-02T01:50:44.991Z,8.62
2022-08-02T01:53:12.857Z,8.48
2022-08-02T01:55:57.640Z,8.69
2022-08-02T01:58:29.963Z,8.60
2022-08-02T02:00:58.271Z,8.72
2022-08-02T02:03:26.756Z,8.72
2022-08-02T02:05:57.686Z,8.51
2022-08-02T02:08:29.043Z,8.50
2022-08-02T02:10:57.636Z,8.55
2022-08-02T02:13:45.286Z,8.71
2022-08-02T02:16:14.149Z,8.72
2022-08-02T02:18:43.876Z,8.53
2022-08-02T02:21:12.275Z,8.39
2022-08-02T02:23:39.072Z,8.42
2022-08-02T02:26:11.260Z,8.37
2022-08-02T02:28:39.883Z,8.39
2022-08-02T02:31:15.926Z,8.46
2022-08-02T02:34:10.461Z,8.40
2022-08-02T02:36:40.086Z,8.40
2022-08-02T02:39:13.374Z,8.40
2022-08-02T02:41:42.280Z,8.43
2022-08-02T02:44:13.385Z,8.44
2022-08-02T02:46:40.964Z,8.43
2022-08-02T02:49:11.146Z,8.60
2022-08-02T02:51:40.737Z,8.67
2022-08-02T02:54:30.361Z,8.51
2022-08-02T02:56:58.267Z,8.40
2022-08-02T02:59:25.205Z,8.39
2022-08-02T03:01:56.605Z,8.44
2022-08-02T03:04:25.248Z,8.42
2022-08-02T03:06:52.017Z,8.38
2022-08-02T03:09:18.813Z,8.53
2022-08-02T03:11:46.011Z,8.51
2022-08-02T03:14:13.528Z,8.39
2022-08-02T03:16:51.659Z,8.43
2022-08-02T03:19:19.677Z,8.51
2022-08-02T03:21:48.461Z,8.43
2022-08-02T03:24:28.365Z,8.37
2022-08-02T03:26:55.400Z,8.38
2022-08-02T03:29:21.942Z,8.40
2022-08-02T03:31:48.517Z,8.48
2022-08-02T03:34:15.343Z,8.40
2022-08-02T03:36:43.347Z,8.47
2022-08-02T03:39:12.724Z,8.25
2022-08-02T03:41:39.732Z,8.21
2022-08-02T03:44:07.885Z,8.32
2022-08-02T03:46:39.219Z,8.51
2022-08-02T03:49:08.526Z,8.49
2022-08-02T03:51:38.129Z,8.42
2022-08-02T03:54:05.442Z,8.44
2022-08-02T03:56:32.229Z,8.47
2022-08-02T03:59:13.300Z,8.47
2022-08-02T04:01:40.430Z,8.48
2022-08-02T04:04:07.406Z,8.64
2022-08-02T04:06:34.674Z,8.63
2022-08-02T04:09:01.335Z,8.51
2022-08-02T04:11:33.738Z,8.49
2022-08-02T04:14:07.699Z,8.30
2022-08-02T04:16:50.707Z,8.34
2022-08-02T04:19:21.882Z,8.34
2022-08-02T04:21:52.555Z,8.32
2022-08-02T04:24:32.355Z,8.39
2022-08-02T04:27:19.407Z,8.32
2022-08-02T04:29:49.613Z,8.28
2022-08-02T04:32:17.698Z,8.28
2022-08-02T04:35:05.043Z,8.38
2022-08-02T04:37:32.587Z,8.36
2022-08-02T04:39:59.147Z,8.31
2022-08-02T04:42:26.817Z,8.26
2022-08-02T04:44:53.822Z,8.27
2022-08-02T04:47:40.013Z,8.33
2022-08-02T04:50:08.654Z,8.40
2022-08-02T04:52:35.140Z,8.47
2022-08-02T04:55:01.775Z,8.50
2022-08-02T04:57:52.722Z,8.53
2022-08-02T05:00:20.037Z,8.54
2022-08-02T05:02:47.275Z,8.65
2022-08-02T05:05:14.059Z,8.85
2022-08-02T05:07:40.707Z,9.02
2022-08-02T05:10:07.556Z,9.01
2022-08-02T05:12:34.187Z,9.07
2022-08-02T05:15:00.886Z,9.18
2022-08-02T05:17:27.459Z,9.32
2022-08-02T05:19:53.999Z,9.50
2022-08-02T05:22:20.516Z,9.59
2022-08-02T05:24:47.139Z,9.70
2022-08-02T05:27:16.497Z,9.84
2022-08-02T05:29:53.001Z,10.02
2022-08-02T05:32:20.928Z,10.23
2022-08-02T05:34:50.482Z,10.44
2022-08-02T05:37:17.264Z,10.54
2022-08-02T05:39:55.862Z,10.61
2022-08-02T05:42:23.731Z,10.77
2022-08-02T05:44:50.423Z,10.90
2022-08-02T05:47:17.110Z,11.08
2022-08-02T05:49:43.799Z,11.19
2022-08-02T05:52:18.771Z,11.34
2022-08-02T05:55:10.206Z,11.45
2022-08-02T05:58:00.616Z,11.68
2022-08-02T06:00:31.623Z,11.72
2022-08-02T06:03:16.985Z,11.84
2022-08-02T06:05:52.356Z,12.03
2022-08-02T06:08:20.914Z,12.13
2022-08-02T06:10:48.654Z,12.30
2022-08-02T06:13:16.874Z,12.42
2022-08-02T06:15:53.319Z,12.57
2022-08-02T06:18:28.373Z,12.73
2022-08-02T06:22:32.371Z,12.92
2022-08-02T06:23:57.692Z,13.06
2022-08-02T06:26:27.333Z,13.25
2022-08-02T06:28:55.448Z,13.21
2022-08-02T06:31:22.154Z,13.20
2022-08-02T06:33:48.696Z,13.29
2022-08-02T06:36:50.769Z,13.35
2022-08-02T06:39:28.488Z,13.60
2022-08-02T06:42:02.894Z,13.88
2022-08-02T06:44:48.743Z,14.22
2022-08-02T06:47:16.813Z,14.25
2022-08-02T06:49:52.510Z,14.36
2022-08-02T06:52:30.979Z,14.51
2022-08-02T06:55:03.272Z,14.62
2022-08-02T06:57:30.728Z,14.77
2022-08-02T06:59:58.619Z,14.84
2022-08-02T07:02:25.406Z,15.06
2022-08-02T07:04:52.014Z,15.14
2022-08-02T07:07:18.806Z,15.30
2022-08-02T07:10:00.035Z,15.43
2022-08-02T07:12:30.667Z,15.62
2022-08-02T07:14:58.690Z,15.75
2022-08-02T07:17:25.552Z,15.81
2022-08-02T07:19:52.058Z,15.87
2022-08-02T07:22:24.312Z,16.02
2022-08-02T07:24:51.466Z,16.06
2022-08-02T07:27:18.439Z,16.20
2022-08-02T07:29:47.144Z,16.32
2022-08-02T07:32:18.814Z,16.39
2022-08-02T07:34:50.929Z,16.30
2022-08-02T07:37:35.427Z,16.42
2022-08-02T07:40:11.887Z,16.59
2022-08-02T07:42:40.439Z,16.73
2022-08-02T07:45:07.256Z,16.70
2022-08-02T07:47:37.917Z,16.89
2022-08-02T07:50:06.302Z,17.03
2022-08-02T07:52:33.024Z,16.99
2022-08-02T07:54:59.562Z,17.06
2022-08-02T07:57:26.062Z,17.07
2022-08-02T07:59:52.732Z,17.06
2022-08-02T08:02:19.218Z,17.04
2022-08-02T08:04:45.784Z,17.35
2022-08-02T08:07:12.272Z,17.27
2022-08-02T08:09:42.253Z,17.31
2022-08-02T08:12:10.768Z,17.37
2022-08-02T08:14:38.693Z,17.56
2022-08-02T08:17:08.546Z,17.72
2022-08-02T08:19:50.958Z,17.77
2022-08-02T08:22:21.527Z,17.92
2022-08-02T08:24:49.131Z,17.90
2022-08-02T08:27:16.907Z,18.12
2022-08-02T08:29:44.219Z,18.08
2022-08-02T08:32:17.077Z,18.24
2022-08-02T08:34:45.153Z,18.39
2022-08-02T08:37:17.865Z,18.58
2022-08-02T08:39:56.454Z,18.53
2022-08-02T08:42:24.390Z,18.64
2022-08-02T08:44:51.571Z,18.64
2022-08-02T08:47:21.148Z,18.71
2022-08-02T08:49:53.039Z,18.82
2022-08-02T08:52:23.804Z,18.82
2022-08-02T08:54:51.363Z,19.12
2022-08-02T08:57:20.280Z,19.21
2022-08-02T08:59:46.958Z,19.06
2022-08-02T09:02:20.404Z,19.19
2022-08-02T09:04:54.433Z,19.31
2022-08-02T09:07:28.238Z,19.42
2022-08-02T09:09:55.901Z,19.34
2022-08-02T09:12:24.766Z,19.46
2022-08-02T09:14:51.468Z,19.38
2022-08-02T09:17:18.683Z,19.49
2022-08-02T09:19:47.904Z,19.59
2022-08-02T09:22:15.841Z,19.64
2022-08-02T09:24:44.800Z,19.59
2022-08-02T09:27:22.821Z,19.68
2022-08-02T09:30:13.422Z,19.80
2022-08-02T09:32:48.374Z,19.90
2022-08-02T09:36:06.795Z,19.80
2022-08-02T09:38:18.635Z,20.02
2022-08-02T09:40:45.313Z,20.18
2022-08-02T09:43:12.427Z,20.23
2022-08-02T09:45:39.073Z,20.37
2022-08-02T09:48:09.585Z,20.53
2022-08-02T09:50:37.413Z,20.52
2022-08-02T09:53:04.746Z,20.63
2022-08-02T09:55:31.333Z,20.70
2022-08-02T09:57:58.073Z,20.66
2022-08-02T10:00:43.585Z,20.91
2022-08-02T10:03:22.378Z,20.98
2022-08-02T10:05:56.126Z,21.01
2022-08-02T10:08:29.434Z,20.92
2022-08-02T10:11:03.567Z,21.00
2022-08-02T10:13:35.521Z,21.36
2022-08-02T10:16:04.443Z,21.21
2022-08-02T10:18:40.369Z,21.26
2022-08-02T10:21:13.406Z,21.42
2022-08-02T10:23:42.437Z,21.40
2022-08-02T10:26:09.601Z,21.49
2022-08-02T10:28:37.755Z,21.71
2022-08-02T10:31:07.605Z,21.66
2022-08-02T10:33:38.206Z,21.58
2022-08-02T10:36:07.383Z,21.62
2022-08-02T10:38:35.415Z,21.66
2022-08-02T10:41:01.940Z,21.83
2022-08-02T10:43:31.531Z,21.66
2022-08-02T10:46:22.700Z,21.71
2022-08-02T10:49:36.232Z,21.75
2022-08-02T10:52:01.091Z,21.97
2022-08-02T10:54:32.112Z,22.25
2022-08-02T10:57:01.513Z,22.26
2022-08-02T10:59:28.210Z,22.32
2022-08-02T11:02:02.560Z,22.48
2022-08-02T11:04:52.029Z,22.42
2022-08-02T11:07:36.540Z,22.30
2022-08-02T11:10:30.208Z,22.56
2022-08-02T11:13:15.169Z,22.56
2022-08-02T11:15:49.582Z,22.63
2022-08-02T11:18:16.743Z,22.87
2022-08-02T11:20:43.481Z,22.92
2022-08-02T11:23:44.299Z,23.14
2022-08-02T11:26:30.819Z,23.33
2022-08-02T11:29:02.566Z,23.39
2022-08-02T11:31:38.023Z,23.35
2022-08-02T11:34:09.594Z,23.34
2022-08-02T11:36:50.969Z,23.65
2022-08-02T11:39:19.938Z,23.68
2022-08-02T11:41:51.526Z,23.69
2022-08-02T11:44:19.536Z,23.91
2022-08-02T11:46:59.125Z,23.80
2022-08-02T11:49:26.231Z,23.86
2022-08-02T11:52:07.430Z,23.92
2022-08-02T11:54:36.530Z,24.06
2022-08-02T11:57:21.273Z,24.27
2022-08-02T11:59:50.119Z,24.24
2022-08-02T12:02:18.743Z,24.17
2022-08-02T12:04:53.190Z,23.98
2022-08-02T12:07:45.976Z,24.13
2022-08-02T12:10:16.931Z,24.24
2022-08-02T12:12:57.668Z,24.10
2022-08-02T12:15:31.183Z,24.31
2022-08-02T12:18:16.810Z,24.59
2022-08-02T12:20:45.391Z,24.59
2022-08-02T12:23:13.263Z,24.43
2022-08-02T12:25:39.974Z,24.50
2022-08-02T12:28:22.570Z,24.53
2022-08-02T12:31:00.646Z,24.57
2022-08-02T12:33:29.492Z,24.48
2022-08-02T12:35:56.555Z,24.58
2022-08-02T12:38:23.085Z,24.65
2022-08-02T12:40:49.658Z,24.59
2022-08-02T12:43:19.350Z,24.56
2022-08-02T12:45:50.660Z,24.51
2022-08-02T12:48:37.430Z,24.41
2022-08-02T12:51:18.670Z,24.30
2022-08-02T12:53:45.202Z,24.37
2022-08-02T12:56:11.809Z,24.26
2022-08-02T12:58:51.829Z,24.42
2022-08-02T13:01:27.697Z,24.43
2022-08-02T13:04:07.609Z,24.57
2022-08-02T13:06:43.886Z,24.87
2022-08-02T13:09:16.120Z,24.97
2022-08-02T13:11:44.106Z,25.01
2022-08-02T13:14:12.355Z,25.02
2022-08-02T13:16:38.964Z,25.12
2022-08-02T13:19:05.531Z,25.28
2022-08-02T13:21:41.071Z,25.34
2022-08-02T13:24:37.738Z,25.24
2022-08-02T13:27:08.647Z,25.21
2022-08-02T13:29:37.107Z,25.73
2022-08-02T13:32:03.803Z,25.39
2022-08-02T13:34:30.364Z,25.37
2022-08-02T13:36:56.910Z,25.48
2022-08-02T13:39:23.418Z,25.46
2022-08-02T13:41:49.978Z,25.57
2022-08-02T13:44:16.501Z,25.69
2022-08-02T13:46:45.547Z,25.70
2022-08-02T13:49:18.506Z,25.59
2022-08-02T13:51:47.002Z,25.69
2022-08-02T13:54:13.511Z,25.55
2022-08-02T13:56:40.003Z,25.51
2022-08-02T13:59:54.898Z,25.53
2022-08-02T14:01:54.273Z,25.49
2022-08-02T14:04:20.906Z,25.54
2022-08-02T14:06:47.421Z,25.78
2022-08-02T14:09:16.824Z,25.66
2022-08-02T14:11:44.270Z,25.71
2022-08-02T14:14:16.719Z,25.58
2022-08-02T14:16:45.654Z,25.60
2022-08-02T14:19:16.679Z,25.61
2022-08-02T14:21:47.951Z,25.75
2022-08-02T14:24:16.550Z,25.68
2022-08-02T14:26:43.474Z,25.68
2022-08-02T14:29:09.990Z,25.81
2022-08-02T14:31:41.640Z,25.83
2022-08-02T14:34:10.782Z,25.83
2022-08-02T14:36:38.273Z,25.97
2022-08-02T14:39:04.846Z,25.87
2022-08-02T14:41:33.968Z,25.98
2022-08-02T14:44:20.468Z,25.83
2022-08-02T14:46:47.024Z,25.83
2022-08-02T14:49:14.632Z,26.01
2022-08-02T14:51:50.768Z,25.85
2022-08-02T14:54:18.217Z,25.66
2022-08-02T14:56:45.011Z,25.96
2022-08-02T14:59:14.769Z,25.65
2022-08-02T15:01:41.831Z,25.58
2022-08-02T15:04:08.395Z,25.53
2022-08-02T15:06:34.979Z,25.38
2022-08-02T15:09:01.559Z,25.50
2022-08-02T15:11:28.239Z,25.53
2022-08-02T15:13:55.179Z,25.60
2022-08-02T15:16:47.329Z,25.62
2022-08-02T15:19:12.751Z,25.59
2022-08-02T15:21:42.137Z,25.65
2022-08-02T15:24:21.339Z,25.55
2022-08-02T15:26:50.213Z,25.52
2022-08-02T15:29:18.043Z,25.40
2022-08-02T15:31:44.620Z,25.20
2022-08-02T15:34:11.242Z,25.15
2022-08-02T15:36:38.046Z,24.92
2022-08-02T15:39:04.749Z,24.88
2022-08-02T15:41:31.648Z,24.86
2022-08-02T15:44:00.794Z,24.86
2022-08-02T15:46:31.097Z,24.87
2022-08-02T15:48:59.656Z,25.00
2022-08-02T15:51:26.773Z,24.99
2022-08-02T15:53:53.272Z,25.06
2022-08-02T15:56:22.032Z,25.16
2022-08-02T15:58:53.031Z,25.07
2022-08-02T16:01:25.817Z,25.01
2022-08-02T16:04:04.740Z,24.98
2022-08-02T16:06:31.248Z,24.89
2022-08-02T16:08:57.782Z,24.85
2022-08-02T16:11:24.297Z,24.96
2022-08-02T16:13:53.339Z,24.88
2022-08-02T16:16:22.330Z,24.98
2022-08-02T16:18:48.912Z,25.09
2022-08-02T16:21:15.491Z,25.07
2022-08-02T16:23:59.243Z,25.02
2022-08-02T16:26:30.574Z,24.93
2022-08-02T16:28:59.495Z,24.82
2022-08-02T16:31:26.209Z,24.61
2022-08-02T16:33:56.739Z,24.36
2022-08-02T16:36:24.297Z,24.18
2022-08-02T16:38:50.887Z,24.09
2022-08-02T16:41:17.405Z,23.98
2022-08-02T16:43:43.932Z,23.69
2022-08-02T16:46:10.454Z,23.57
2022-08-02T16:48:37.335Z,23.51
2022-08-02T16:51:04.608Z,23.43
2022-08-02T16:53:37.066Z,23.36
2022-08-02T16:56:05.080Z,23.25
2022-08-02T16:58:31.627Z,23.23
2022-08-02T17:00:58.218Z,23.25
2022-08-02T17:03:24.773Z,23.18
2022-08-02T17:06:11.238Z,23.22
2022-08-02T17:08:54.529Z,23.21
2022-08-02T17:11:21.513Z,23.13
2022-08-02T17:13:50.965Z,23.19
2022-08-02T17:16:20.434Z,23.18
2022-08-02T17:18:53.172Z,23.25
2022-08-02T17:21:19.945Z,23.28
2022-08-02T17:24:06.073Z,23.37
2022-08-02T17:26:33.266Z,23.47
2022-08-02T17:29:17.735Z,23.43
2022-08-02T17:32:12.410Z,23.38
2022-08-02T17:34:36.760Z,23.53
2022-08-02T17:37:05.618Z,23.37
2022-08-02T17:39:34.514Z,23.29
2022-08-02T17:42:10.884Z,23.28
2022-08-02T17:44:42.147Z,23.34
2022-08-02T17:47:15.609Z,23.26
2022-08-02T17:49:48.438Z,23.22
2022-08-02T17:52:50.790Z,23.17
2022-08-02T17:55:03.760Z,23.15
2022-08-02T17:57:57.792Z,23.05
2022-08-02T18:00:17.743Z,23.01
2022-08-02T18:02:52.901Z,22.88
2022-08-02T18:05:39.686Z,22.79
2022-08-02T18:08:13.207Z,22.73
2022-08-02T18:10:40.797Z,22.67
2022-08-02T18:13:07.300Z,22.63
2022-08-02T18:15:34.270Z,22.57
2022-08-02T18:18:00.950Z,22.52
2022-08-02T18:20:27.509Z,22.47
2022-08-02T18:22:58.331Z,22.44
2022-08-02T18:25:37.527Z,22.42
2022-08-02T18:28:12.597Z,22.34
2022-08-02T18:30:39.473Z,22.29
2022-08-02T18:33:59.213Z,22.22
2022-08-02T18:35:55.340Z,22.14
2022-08-02T18:38:22.765Z,22.09
2022-08-02T18:40:51.201Z,22.05
2022-08-02T18:43:18.809Z,21.96
2022-08-02T18:46:05.671Z,21.91
2022-08-02T18:48:35.463Z,21.80
2022-08-02T18:51:02.897Z,21.70
2022-08-02T18:53:41.545Z,21.64
2022-08-02T18:56:19.582Z,21.52
2022-08-02T18:58:51.883Z,21.43
2022-08-02T19:01:31.667Z,21.36
2022-08-02T19:04:01.390Z,21.28
2022-08-02T19:06:29.080Z,21.21
2022-08-02T19:09:05.098Z,21.15
2022-08-02T19:11:37.172Z,21.12
2022-08-02T19:14:03.748Z,21.13
2022-08-02T19:16:36.712Z,21.06
2022-08-02T19:19:05.085Z,20.98
2022-08-02T19:22:17.354Z,20.90
2022-08-02T19:24:18.370Z,20.97
2022-08-02T19:29:48.160Z,21.10
2022-08-02T19:32:39.847Z,21.23
2022-08-02T19:35:19.815Z,21.16
2022-08-02T19:40:42.273Z,21.01
2022-08-02T19:44:25.847Z,21.03
2022-08-02T19:45:58.460Z,20.94
2022-08-02T19:48:26.775Z,20.81
2022-08-02T19:50:56.134Z,20.76
2022-08-02T19:53:48.538Z,20.72
2022-08-02T19:56:20.625Z,20.68
2022-08-02T19:58:49.419Z,20.66
2022-08-02T20:01:17.307Z,20.64
2022-08-02T20:03:51.097Z,20.62
2022-08-02T20:06:19.754Z,20.57
2022-08-02T20:08:57.083Z,20.54
2022-08-02T20:11:25.437Z,20.54
2022-08-02T20:13:53.457Z,20.52
2022-08-02T20:16:27.400Z,20.51
2022-08-02T20:18:55.238Z,20.49
2022-08-02T20:21:35.919Z,20.46
2022-08-02T20:24:07.740Z,20.43
2022-08-02T20:26:35.146Z,20.44
2022-08-02T20:29:03.366Z,20.42
2022-08-02T20:31:30.384Z,20.41
2022-08-02T20:33:57.510Z,20.42
2022-08-02T20:36:25.728Z,20.39
2022-08-02T20:38:54.520Z,20.35
2022-08-02T20:41:22.255Z,20.34
2022-08-02T20:43:49.736Z,20.30
2022-08-02T20:46:16.431Z,20.26
2022-08-02T20:48:44.235Z,20.23
2022-08-02T20:51:14.143Z,20.20
2022-08-02T20:53:54.860Z,20.19
2022-08-02T20:56:23.138Z,20.15
2022-08-02T20:58:52.389Z,20.11
2022-08-02T21:01:21.196Z,20.08
2022-08-02T21:03:53.002Z,20.08
2022-08-02T21:06:29.883Z,20.06
2022-08-02T21:08:58.726Z,20.03
2022-08-02T21:11:33.763Z,19.98
2022-08-02T21:14:06.938Z,19.95
2022-08-02T21:16:36.163Z,19.92
2022-08-02T21:19:02.923Z,19.90
2022-08-02T21:21:34.727Z,19.90
2022-08-02T21:24:01.810Z,19.86
2022-08-02T21:26:30.610Z,19.83
2022-08-02T21:29:03.299Z,19.80
2022-08-02T21:31:32.084Z,19.80
2022-08-02T21:34:00.847Z,19.81
2022-08-02T21:36:33.842Z,19.80
2022-08-02T21:39:08.983Z,19.78
2022-08-02T21:41:39.208Z,19.82
2022-08-02T21:44:15.991Z,19.72
2022-08-02T21:46:44.578Z,19.64
2022-08-02T21:49:12.534Z,19.59
2022-08-02T21:51:40.255Z,19.58
2022-08-02T21:54:17.508Z,19.57
2022-08-02T21:56:45.939Z,19.53
2022-08-02T21:59:16.249Z,19.54
2022-08-02T22:01:52.317Z,19.55
2022-08-02T22:04:20.522Z,19.51
2022-08-02T22:06:49.146Z,19.48
2022-08-02T22:09:43.228Z,19.45
2022-08-02T22:12:10.073Z,19.45
2022-08-02T22:14:39.868Z,19.47
2022-08-02T22:19:54.692Z,19.45
2022-08-02T22:22:28.403Z,19.42
2022-08-02T22:24:56.791Z,19.38
2022-08-02T22:27:24.196Z,19.29
2022-08-02T22:30:11.248Z,19.21
2022-08-02T22:32:56.354Z,19.09
2022-08-02T22:35:22.991Z,19.00
2022-08-02T22:38:16.956Z,18.94
2022-08-02T22:40:36.081Z,18.88
2022-08-02T22:43:02.611Z,18.88
2022-08-02T22:45:29.400Z,18.89
2022-08-02T22:47:58.690Z,18.92
2022-08-02T22:50:27.033Z,18.95
2022-08-02T22:52:54.037Z,18.95
2022-08-02T22:55:21.481Z,18.97
2022-08-02T22:57:50.597Z,18.98
2022-08-02T22:58:48.002Z,21.29
2022-08-02T22:59:04.484Z,19.46
2022-08-02T22:59:06.568Z,21.13
2022-08-02T23:00:24.230Z,18.98
2022-08-02T23:02:50.977Z,18.97
2022-08-02T23:05:18.205Z,18.97
2022-08-02T23:07:44.692Z,18.98
2022-08-02T23:10:11.226Z,18.97
2022-08-02T23:12:37.773Z,19.01
2022-08-02T23:15:04.765Z,19.03
2022-08-02T23:17:49.635Z,19.03
2022-08-02T23:20:19.746Z,19.04
2022-08-02T23:22:46.271Z,19.05
2022-08-02T23:25:12.784Z,19.07
2022-08-02T23:27:39.534Z,19.06
2022-08-02T23:30:16.952Z,19.04
2022-08-02T23:32:43.454Z,19.02
2022-08-02T23:35:10.175Z,19.06
2022-08-02T23:37:59.943Z,19.04
2022-08-02T23:40:40.482Z,19.06
2022-08-02T23:43:13.866Z,18.98
2022-08-02T23:45:44.390Z,18.98
2022-08-02T23:48:10.910Z,18.96
2022-08-02T23:50:37.470Z,18.87
2022-08-02T23:53:03.985Z,18.85
2022-08-02T23:55:30.538Z,18.74
2022-08-02T23:57:57.038Z,18.63
